Map

Track Data

SID SEASON NUMBER BASIN SUBBASIN NAME ISO_TIME NATURE LAT LON WMO_WIND WMO_PRES WMO_AGENCY TRACK_TYPE DIST2LAND LANDFALL IFLAG USA_AGENCY USA_ATCF_ID USA_LAT USA_LON USA_RECORD USA_STATUS USA_WIND USA_PRES USA_SSHS USA_R34_NE USA_R34_SE USA_R34_SW USA_R34_NW USA_R50_NE USA_R50_SE USA_R50_SW USA_R50_NW USA_R64_NE USA_R64_SE USA_R64_SW USA_R64_NW USA_POCI USA_ROCI USA_RMW USA_EYE TOKYO_LAT TOKYO_LON TOKYO_GRADE TOKYO_WIND TOKYO_PRES TOKYO_R50_DIR TOKYO_R50_LONG TOKYO_R50_SHORT TOKYO_R30_DIR TOKYO_R30_LONG TOKYO_R30_SHORT TOKYO_LAND CMA_LAT CMA_LON CMA_CAT CMA_WIND CMA_PRES HKO_LAT HKO_LON HKO_CAT HKO_WIND HKO_PRES NEWDELHI_LAT NEWDELHI_LON NEWDELHI_GRADE NEWDELHI_WIND NEWDELHI_PRES NEWDELHI_CI NEWDELHI_DP NEWDELHI_POCI REUNION_LAT REUNION_LON REUNION_TYPE REUNION_WIND REUNION_PRES REUNION_TNUM REUNION_CI REUNION_RMW REUNION_R34_NE REUNION_R34_SE REUNION_R34_SW REUNION_R34_NW REUNION_R50_NE REUNION_R50_SE REUNION_R50_SW REUNION_R50_NW REUNION_R64_NE REUNION_R64_SE REUNION_R64_SW REUNION_R64_NW BOM_LAT BOM_LON BOM_TYPE BOM_WIND BOM_PRES BOM_TNUM BOM_CI BOM_RMW BOM_R34_NE BOM_R34_SE BOM_R34_SW BOM_R34_NW BOM_R50_NE BOM_R50_SE BOM_R50_SW BOM_R50_NW BOM_R64_NE BOM_R64_SE BOM_R64_SW BOM_R64_NW BOM_ROCI BOM_POCI BOM_EYE BOM_POS_METHOD BOM_PRES_METHOD NADI_LAT NADI_LON NADI_CAT NADI_WIND NADI_PRES WELLINGTON_LAT WELLINGTON_LON WELLINGTON_WIND WELLINGTON_PRES DS824_LAT DS824_LON DS824_STAGE DS824_WIND DS824_PRES TD9636_LAT TD9636_LON TD9636_STAGE TD9636_WIND TD9636_PRES TD9635_LAT TD9635_LON TD9635_WIND TD9635_PRES TD9635_ROCI NEUMANN_LAT NEUMANN_LON NEUMANN_CLASS NEUMANN_WIND NEUMANN_PRES MLC_LAT MLC_LON MLC_CLASS MLC_WIND MLC_PRES USA_GUST BOM_GUST BOM_GUST_PER REUNION_GUST REUNION_GUST_PER USA_SEAHGT USA_SEARAD_NE USA_SEARAD_SE USA_SEARAD_SW USA_SEARAD_NW STORM_SPEED STORM_DIR
1855021S15057 1855 2 SI MM NOT_NAMED 1855-01-21 06:00:00 NR -14.6500 57.3500 reunion main 615 593 _____O____O___ -1 -14.4000 57.1000 99 9.90000 -14.9000 57.6000 7 2 158
1855021S15057 1855 2 SI MM NOT_NAMED 1855-01-21 09:00:00 NR -14.7603 57.3959 main 593 581 _____P____P___ -1 -14.4612 57.0981 99 -15.0594 57.6937 7 2 159
1855021S15057 1855 2 SI MM NOT_NAMED 1855-01-21 12:00:00 NR -14.8750 57.4444 main 581 570 _____P____P___ -1 -14.5249 57.0988 99 -15.2250 57.7900 7 3 158
1855021S15057 1855 2 SI MM NOT_NAMED 1855-01-21 15:00:00 NR -14.9984 57.4979 main 570 559 _____P____P___ -1 -14.5936 57.1045 99 -15.4031 57.8913 7 3 157
1855021S15057 1855 2 SI MM NOT_NAMED 1855-01-21 18:00:00 NR -15.1349 57.5590 main 559 537 _____P____O___ -1 -14.6698 57.1180 99 -15.6000 58.0000 7 3 157
1855021S15057 1855 2 SI MM NOT_NAMED 1855-01-21 21:00:00 NR -15.2874 57.6297 main 537 525 _____P____P___ -1 -14.7561 57.1417 99 -15.8187 58.1178 7 4 155
1855021S15057 1855 2 SI MM NOT_NAMED 1855-01-22 00:00:00 NR -15.4524 57.7103 main 514 503 _____P____P___ -1 -14.8549 57.1782 99 -16.0500 58.2425 7 4 154
1855021S15057 1855 2 SI MM NOT_NAMED 1855-01-22 03:00:00 NR -15.6250 57.8005 main 503 481 _____P____P___ -1 -14.9687 57.2301 99 -16.2812 58.3709 7 4 153
1855021S15057 1855 2 SI MM NOT_NAMED 1855-01-22 06:00:00 NR -15.8000 57.9000 reunion main 481 459 _____O____O___ -1 -15.1000 57.3000 99 9.90000 -16.5000 58.5000 7 4 149
1855021S15057 1855 2 SI MM NOT_NAMED 1855-01-22 09:00:00 NR -15.9658 58.0094 main 459 449 _____P____P___ -1 -15.2504 57.3895 99 -16.6812 58.6292 7 4 147
1855021S15057 1855 2 SI MM NOT_NAMED 1855-01-22 12:00:00 NR -16.1338 58.1269 main 449 428 _____P____P___ -1 -15.4177 57.4962 99 -16.8500 58.7577 7 4 146
1855021S15057 1855 2 SI MM NOT_NAMED 1855-01-22 15:00:00 NR -16.3087 58.2494 main 428 407 _____P____P___ -1 -15.5987 57.6165 99 -17.0187 58.8823 7 4 147
1855021S15057 1855 2 SI MM NOT_NAMED 1855-01-22 18:00:00 NR -16.4951 58.3735 main 409 389 _____P____O___ -1 -15.7903 57.7470 99 -17.2000 59.0000 7 5 149
1855021S15057 1855 2 SI MM NOT_NAMED 1855-01-22 21:00:00 NR -16.6979 58.4917 main 389 370 _____P____P___ -1 -15.9893 57.8841 99 -17.4065 59.0992 7 5 152
1855021S15057 1855 2 SI MM NOT_NAMED 1855-01-23 00:00:00 NR -16.9100 58.6086 main 370 351 _____P____P___ -1 -16.1927 58.0244 99 -17.6274 59.1928 7 5 153
1855021S15057 1855 2 SI MM NOT_NAMED 1855-01-23 03:00:00 NR -17.1285 58.7270 main 351 333 _____P____P___ -1 -16.3973 58.1642 99 -17.8596 59.2899 7 5 152
1855021S15057 1855 2 SI MM NOT_NAMED 1855-01-23 06:00:00 NR -17.3500 58.8500 reunion main 337 317 _____O____O___ -1 -16.6000 58.3000 99 9.90000 -18.1000 59.4000 7 5 152
1855021S15057 1855 2 SI MM NOT_NAMED 1855-01-23 09:00:00 NR -17.5603 58.9737 main 311 296 _____P____P___ -1 -16.7778 58.4118 99 -18.3428 59.5356 7 5 150
1855021S15057 1855 2 SI MM NOT_NAMED 1855-01-23 12:00:00 NR -17.7735 59.1029 main 296 282 _____P____P___ -1 -16.9545 58.5207 99 -18.5925 59.6850 7 5 150
1855021S15057 1855 2 SI MM NOT_NAMED 1855-01-23 15:00:00 NR -17.9890 59.2351 main 282 270 _____P____P___ -1 -17.1320 58.6283 99 -18.8459 59.8419 7 5 150
1855021S15057 1855 2 SI MM NOT_NAMED 1855-01-23 18:00:00 NR -18.2061 59.3681 main 277 268 _____P____O___ -1 -17.3122 58.7361 99 -19.1000 60.0000 7 5 150
1855021S15057 1855 2 SI MM NOT_NAMED 1855-01-23 21:00:00 NR -18.4276 59.4979 main 268 260 _____P____P___ -1 -17.4972 58.8456 99 -19.3581 60.1501 7 5 151
1855021S15057 1855 2 SI MM NOT_NAMED 1855-01-24 00:00:00 NR -18.6519 59.6292 main 253 248 _____P____P___ -1 -17.6888 58.9584 99 -19.6149 60.3001 7 5 151
1855021S15057 1855 2 SI MM NOT_NAMED 1855-01-24 03:00:00 NR -18.8767 59.7630 main 257 252 _____P____P___ -1 -17.8891 59.0760 99 -19.8643 60.4501 7 5 150
1855021S15057 1855 2 SI MM NOT_NAMED 1855-01-24 06:00:00 NR -19.1000 59.9000 reunion main 256 251 _____O____O___ -1 -18.1000 59.2000 99 9.90000 -20.1000 60.6000 7 5 149
1855021S15057 1855 2 SI MM NOT_NAMED 1855-01-24 09:00:00 NR -19.3205 60.0460 main 255 255 _____P____P___ -1 -18.3306 59.3379 99 -20.3103 60.7542 7 5 147
1855021S15057 1855 2 SI MM NOT_NAMED 1855-01-24 12:00:00 NR -19.5399 60.1950 main 266 262 _____P____P___ -1 -18.5723 59.4823 99 -20.5075 60.9077 7 5 147
1855021S15057 1855 2 SI MM NOT_NAMED 1855-01-24 15:00:00 NR -19.7615 60.3446 main 267 267 _____P____P___ -1 -18.8222 59.6318 99 -20.7009 61.0573 7 5 148
1855021S15057 1855 2 SI MM NOT_NAMED 1855-01-24 18:00:00 NR -19.9888 60.4924 main 283 282 _____P____O___ -1 -19.0776 59.7847 99 -20.9000 61.2000 7 5 150
1855021S15057 1855 2 SI MM NOT_NAMED 1855-01-24 21:00:00 NR -20.2125 60.6261 main 292 291 _____P____P___ -1 -19.3358 59.9396 99 -21.0892 61.3125 7 5 151
1855021S15057 1855 2 SI MM NOT_NAMED 1855-01-25 00:00:00 NR -20.4419 60.7580 main 312 312 _____P____P___ -1 -19.5941 60.0949 99 -21.2897 61.4210 7 5 152
1855021S15057 1855 2 SI MM NOT_NAMED 1855-01-25 03:00:00 NR -20.6851 60.8964 main 325 325 _____P____P___ -1 -19.8498 60.2489 99 -21.5204 61.5440 7 6 152
1855021S15057 1855 2 SI MM NOT_NAMED 1855-01-25 06:00:00 NR -20.9500 61.0500 reunion main 349 352 _____O____O___ -1 -20.1000 60.4000 99 9.90000 -21.8000 61.7000 7 6 151
1855021S15057 1855 2 SI MM NOT_NAMED 1855-01-25 09:00:00 NR -21.2255 61.2201 main 367 367 _____P____P___ -1 -20.3053 60.5264 99 -22.1458 61.9138 7 7 150
1855021S15057 1855 2 SI MM NOT_NAMED 1855-01-25 12:00:00 NR -21.5215 61.4054 main 397 397 _____P____P___ -1 -20.5029 60.6485 99 -22.5402 62.1622 7 7 150
1855021S15057 1855 2 SI MM NOT_NAMED 1855-01-25 15:00:00 NR -21.8320 61.5998 main 428 428 _____P____P___ -1 -20.6994 60.7700 99 -22.9645 62.4296 7 7 150
1855021S15057 1855 2 SI MM NOT_NAMED 1855-01-25 18:00:00 NR -22.1508 61.7973 main 465 465 _____P____O___ -1 -20.9016 60.8945 99 -23.4000 62.7000 7 7 150
1855021S15057 1855 2 SI MM NOT_NAMED 1855-01-25 21:00:00 NR -22.4738 61.9933 main 497 497 _____P____P___ -1 -21.1161 61.0260 99 -23.8316 62.9606 7 5 153
1855021S15057 1855 2 SI MM NOT_NAMED 1855-01-26 00:00:00 NR -22.5959 62.0439 main 502 502 _____P____P___ -1 -21.3496 61.1681 99 -24.2576 63.2116 7 2 166
1855021S15057 1855 2 SI MM NOT_NAMED 1855-01-26 03:00:00 NR -22.6324 62.0355 main 502 488 _____P____P___ -1 -21.6087 61.3248 99 -24.6798 63.4569 7 1 300
1855021S15057 1855 2 SI MM NOT_NAMED 1855-01-26 06:00:00 NR -22.5400 61.9400 reunion main 488 460 _____O____O___ -1 -21.9000 61.5000 99 9.90000 -25.1000 63.7000 7 4 321
1855021S15057 1855 2 SI MM NOT_NAMED 1855-01-26 09:00:00 NR -22.2912 61.7320 main 460 460 _____P________ -1 -22.2912 61.7320 99 7 2 166
1855021S15057 1855 2 SI MM NOT_NAMED 1855-01-26 12:00:00 NR -22.7200 61.9865 main 507 507 _____P________ -1 -22.7200 61.9865 99 7 10 151
1855021S15057 1855 2 SI MM NOT_NAMED 1855-01-26 15:00:00 NR -23.1705 62.2552 main 562 562 _____P________ -1 -23.1705 62.2552 99 7 10 151
1855021S15057 1855 2 SI MM NOT_NAMED 1855-01-26 18:00:00 NR -23.6270 62.5293 main 603 603 _____P________ -1 -23.6270 62.5293 99 10 151
1855021S15057 1855 2 SI MM NOT_NAMED 1855-01-26 21:00:00 NR -24.0738 62.8001 main 661 661 _____P________ -1 -24.0738 62.8001 99 10 151
1855021S15057 1855 2 SI MM NOT_NAMED 1855-01-27 00:00:00 NR -24.4953 63.0584 main 712 712 _____P________ -1 -24.4953 63.0584 99 9 151
1855021S15057 1855 2 SI MM NOT_NAMED 1855-01-27 03:00:00 NR -24.8758 63.2949 main 755 755 _____P________ -1 -24.8758 63.2949 99 8 150
1855021S15057 1855 2 SI MM NOT_NAMED 1855-01-27 06:00:00 NR -25.2000 63.5000 reunion main 792 792 _____O________ -1 -25.2000 63.5000 99 9.90000 7 150
1855021S15057 1855 2 SI MM NOT_NAMED 1855-01-27 09:00:00 NR -25.4564 63.6665 main 829 829 _____P________ -1 -25.4564 63.6665 99 5 149
1855021S15057 1855 2 SI MM NOT_NAMED 1855-01-27 12:00:00 NR -25.6502 63.7966 main 852 852 _____P________ -1 -25.6502 63.7966 99 4 148
1855021S15057 1855 2 SI MM NOT_NAMED 1855-01-27 15:00:00 NR -25.7903 63.8955 main 867 867 _____P________ -1 -25.7903 63.8955 99 3 147
1855021S15057 1855 2 SI MM NOT_NAMED 1855-01-27 18:00:00 NR -25.8857 63.9681 main 882 882 _____P________ -1 -25.8857 63.9681 99 2 145
1855021S15057 1855 2 SI MM NOT_NAMED 1855-01-27 21:00:00 NR -25.9455 64.0196 main 882 882 _____P________ -1 -25.9455 64.0196 99 1 138
1855021S15057 1855 2 SI MM NOT_NAMED 1855-01-28 00:00:00 NR -25.9785 64.0552 main 896 896 _____P________ -1 -25.9785 64.0552 99 1 135
1855021S15057 1855 2 SI MM NOT_NAMED 1855-01-28 03:00:00 NR -25.9937 64.0803 main 896 896 _____P________ -1 -25.9937 64.0803 99 0 123
1855021S15057 1855 2 SI MM NOT_NAMED 1855-01-28 06:00:00 NR -26.0000 64.1000 reunion main 896 _____O________ -1 -26.0000 64.1000 99 9.90000 0 0

About IBTrACS Database

This database is a web-friendly format of International Best Track Archive for Climate Stewardship (IBTrACS), a global best track data archive curated by NOAA dating back to 1842.

Updated: 2021-11-26